sensor_id;sensor_type;location;lat;lon;timestamp;P1;durP1;ratioP1;P2;durP2;ratioP2
47481;SDS011;33219;47.410;9.730;2022-12-07T00:01:28;27.50;;;17.73;;
47481;SDS011;33219;47.410;9.730;2022-12-07T00:03:54;30.53;;;18.40;;
47481;SDS011;33219;47.410;9.730;2022-12-07T00:06:25;28.37;;;17.37;;
47481;SDS011;33219;47.410;9.730;2022-12-07T00:08:53;27.70;;;18.00;;
47481;SDS011;33219;47.410;9.730;2022-12-07T00:11:21;27.97;;;17.70;;
47481;SDS011;33219;47.410;9.730;2022-12-07T00:13:56;32.83;;;19.57;;
47481;SDS011;33219;47.410;9.730;2022-12-07T00:16:27;31.47;;;18.23;;
47481;SDS011;33219;47.410;9.730;2022-12-07T00:18:56;28.73;;;17.33;;
47481;SDS011;33219;47.410;9.730;2022-12-07T00:21:25;29.13;;;18.07;;
47481;SDS011;33219;47.410;9.730;2022-12-07T00:23:54;27.57;;;17.47;;
47481;SDS011;33219;47.410;9.730;2022-12-07T00:26:23;28.43;;;18.17;;
47481;SDS011;33219;47.410;9.730;2022-12-07T00:28:53;31.43;;;18.90;;
47481;SDS011;33219;47.410;9.730;2022-12-07T00:31:24;39.00;;;20.47;;
47481;SDS011;33219;47.410;9.730;2022-12-07T00:33:53;45.00;;;22.63;;
47481;SDS011;33219;47.410;9.730;2022-12-07T00:36:21;34.30;;;19.57;;
47481;SDS011;33219;47.410;9.730;2022-12-07T00:38:50;33.87;;;19.77;;
47481;SDS011;33219;47.410;9.730;2022-12-07T00:41:21;28.97;;;18.63;;
47481;SDS011;33219;47.410;9.730;2022-12-07T00:43:50;30.07;;;17.93;;
47481;SDS011;33219;47.410;9.730;2022-12-07T00:46:19;27.93;;;17.93;;
47481;SDS011;33219;47.410;9.730;2022-12-07T00:48:47;29.33;;;17.53;;
47481;SDS011;33219;47.410;9.730;2022-12-07T00:51:16;31.40;;;17.43;;
47481;SDS011;33219;47.410;9.730;2022-12-07T00:53:45;27.80;;;18.30;;
47481;SDS011;33219;47.410;9.730;2022-12-07T00:58:44;25.37;;;15.57;;
47481;SDS011;33219;47.410;9.730;2022-12-07T01:01:19;24.67;;;15.67;;
47481;SDS011;33219;47.410;9.730;2022-12-07T01:03:47;26.10;;;16.73;;
47481;SDS011;33219;47.410;9.730;2022-12-07T01:06:16;26.70;;;16.57;;
47481;SDS011;33219;47.410;9.730;2022-12-07T01:08:44;27.67;;;17.83;;
47481;SDS011;33219;47.410;9.730;2022-12-07T01:11:14;27.30;;;16.83;;
47481;SDS011;33219;47.410;9.730;2022-12-07T01:13:43;26.27;;;16.57;;
47481;SDS011;33219;47.410;9.730;2022-12-07T01:16:12;25.47;;;16.53;;
47481;SDS011;33219;47.410;9.730;2022-12-07T01:18:41;22.23;;;14.90;;
47481;SDS011;33219;47.410;9.730;2022-12-07T01:21:11;22.63;;;15.07;;
47481;SDS011;33219;47.410;9.730;2022-12-07T01:23:41;24.93;;;14.47;;
47481;SDS011;33219;47.410;9.730;2022-12-07T01:26:10;19.37;;;13.03;;
47481;SDS011;33219;47.410;9.730;2022-12-07T01:28:39;20.83;;;12.97;;
47481;SDS011;33219;47.410;9.730;2022-12-07T01:31:11;22.23;;;14.33;;
47481;SDS011;33219;47.410;9.730;2022-12-07T01:33:44;17.77;;;11.50;;
47481;SDS011;33219;47.410;9.730;2022-12-07T01:36:16;16.03;;;10.47;;
47481;SDS011;33219;47.410;9.730;2022-12-07T01:38:47;16.30;;;10.23;;
47481;SDS011;33219;47.410;9.730;2022-12-07T01:41:17;14.17;;;9.87;;
47481;SDS011;33219;47.410;9.730;2022-12-07T01:46:33;17.53;;;10.03;;
47481;SDS011;33219;47.410;9.730;2022-12-07T01:49:01;15.90;;;10.13;;
47481;SDS011;33219;47.410;9.730;2022-12-07T01:51:31;15.73;;;9.67;;
47481;SDS011;33219;47.410;9.730;2022-12-07T01:53:58;14.10;;;9.10;;
47481;SDS011;33219;47.410;9.730;2022-12-07T01:56:27;13.53;;;9.13;;
47481;SDS011;33219;47.410;9.730;2022-12-07T01:58:56;13.97;;;9.70;;
47481;SDS011;33219;47.410;9.730;2022-12-07T02:01:26;15.93;;;9.80;;
47481;SDS011;33219;47.410;9.730;2022-12-07T02:03:53;13.00;;;9.33;;
47481;SDS011;33219;47.410;9.730;2022-12-07T02:06:22;15.20;;;9.70;;
47481;SDS011;33219;47.410;9.730;2022-12-07T02:08:52;13.30;;;9.93;;
47481;SDS011;33219;47.410;9.730;2022-12-07T02:11:20;14.67;;;9.17;;
47481;SDS011;33219;47.410;9.730;2022-12-07T02:13:48;16.37;;;9.80;;
47481;SDS011;33219;47.410;9.730;2022-12-07T02:16:25;19.27;;;10.67;;
47481;SDS011;33219;47.410;9.730;2022-12-07T02:22:51;18.13;;;10.43;;
47481;SDS011;33219;47.410;9.730;2022-12-07T02:24:45;14.20;;;9.07;;
47481;SDS011;33219;47.410;9.730;2022-12-07T02:27:28;14.60;;;9.77;;
47481;SDS011;33219;47.410;9.730;2022-12-07T02:30:14;15.30;;;9.20;;
47481;SDS011;33219;47.410;9.730;2022-12-07T02:32:43;15.30;;;9.33;;
47481;SDS011;33219;47.410;9.730;2022-12-07T02:35:28;18.33;;;10.30;;
47481;SDS011;33219;47.410;9.730;2022-12-07T02:38:08;19.80;;;11.23;;
47481;SDS011;33219;47.410;9.730;2022-12-07T02:40:48;24.80;;;12.90;;
47481;SDS011;33219;47.410;9.730;2022-12-07T02:43:25;18.13;;;10.50;;
47481;SDS011;33219;47.410;9.730;2022-12-07T02:45:54;15.63;;;9.77;;
47481;SDS011;33219;47.410;9.730;2022-12-07T02:48:24;15.13;;;9.50;;
47481;SDS011;33219;47.410;9.730;2022-12-07T02:50:52;14.10;;;8.40;;
47481;SDS011;33219;47.410;9.730;2022-12-07T02:53:30;13.43;;;8.43;;
47481;SDS011;33219;47.410;9.730;2022-12-07T02:56:21;13.20;;;8.87;;
47481;SDS011;33219;47.410;9.730;2022-12-07T03:07:29;14.45;;;9.48;;
47481;SDS011;33219;47.410;9.730;2022-12-07T03:10:07;16.27;;;9.37;;
47481;SDS011;33219;47.410;9.730;2022-12-07T03:12:53;13.53;;;9.27;;
47481;SDS011;33219;47.410;9.730;2022-12-07T03:15:24;15.95;;;9.30;;
47481;SDS011;33219;47.410;9.730;2022-12-07T03:18:04;13.97;;;9.17;;
47481;SDS011;33219;47.410;9.730;2022-12-07T03:20:33;12.60;;;9.07;;
47481;SDS011;33219;47.410;9.730;2022-12-07T03:23:04;13.87;;;9.10;;
47481;SDS011;33219;47.410;9.730;2022-12-07T03:25:36;15.67;;;8.57;;
47481;SDS011;33219;47.410;9.730;2022-12-07T03:28:08;12.70;;;7.97;;
47481;SDS011;33219;47.410;9.730;2022-12-07T03:30:51;14.67;;;8.53;;
47481;SDS011;33219;47.410;9.730;2022-12-07T03:33:25;11.53;;;8.03;;
47481;SDS011;33219;47.410;9.730;2022-12-07T03:36:11;11.73;;;8.57;;
47481;SDS011;33219;47.410;9.730;2022-12-07T03:38:50;12.50;;;8.27;;
47481;SDS011;33219;47.410;9.730;2022-12-07T03:41:29;11.90;;;8.40;;
47481;SDS011;33219;47.410;9.730;2022-12-07T03:43:49;14.33;;;8.50;;
47481;SDS011;33219;47.410;9.730;2022-12-07T03:46:27;12.80;;;8.60;;
47481;SDS011;33219;47.410;9.730;2022-12-07T03:49:20;13.07;;;8.37;;
47481;SDS011;33219;47.410;9.730;2022-12-07T03:51:54;14.83;;;8.80;;
47481;SDS011;33219;47.410;9.730;2022-12-07T03:56:58;13.40;;;9.20;;
47481;SDS011;33219;47.410;9.730;2022-12-07T03:59:28;14.77;;;8.53;;
47481;SDS011;33219;47.410;9.730;2022-12-07T04:01:58;14.30;;;7.40;;
47481;SDS011;33219;47.410;9.730;2022-12-07T04:04:30;13.50;;;9.03;;
47481;SDS011;33219;47.410;9.730;2022-12-07T04:06:59;10.93;;;7.63;;
47481;SDS011;33219;47.410;9.730;2022-12-07T04:09:26;12.93;;;8.03;;
47481;SDS011;33219;47.410;9.730;2022-12-07T04:11:54;12.97;;;8.27;;
47481;SDS011;33219;47.410;9.730;2022-12-07T04:14:22;13.00;;;8.33;;
47481;SDS011;33219;47.410;9.730;2022-12-07T04:16:56;11.67;;;7.93;;
47481;SDS011;33219;47.410;9.730;2022-12-07T04:19:26;12.00;;;7.83;;
47481;SDS011;33219;47.410;9.730;2022-12-07T04:21:58;12.33;;;7.90;;
47481;SDS011;33219;47.410;9.730;2022-12-07T04:24:28;13.83;;;8.30;;
47481;SDS011;33219;47.410;9.730;2022-12-07T04:26:56;10.73;;;7.63;;
47481;SDS011;33219;47.410;9.730;2022-12-07T04:29:24;10.80;;;7.17;;
47481;SDS011;33219;47.410;9.730;2022-12-07T04:31:52;13.47;;;7.90;;
47481;SDS011;33219;47.410;9.730;2022-12-07T04:34:20;12.57;;;7.67;;
47481;SDS011;33219;47.410;9.730;2022-12-07T04:36:47;11.43;;;7.77;;
47481;SDS011;33219;47.410;9.730;2022-12-07T04:39:25;14.23;;;7.40;;
47481;SDS011;33219;47.410;9.730;2022-12-07T04:41:55;12.87;;;7.70;;
47481;SDS011;33219;47.410;9.730;2022-12-07T04:44:23;13.87;;;8.17;;
47481;SDS011;33219;47.410;9.730;2022-12-07T04:46:54;12.82;;;8.10;;
47481;SDS011;33219;47.410;9.730;2022-12-07T04:49:23;13.43;;;8.40;;
47481;SDS011;33219;47.410;9.730;2022-12-07T04:51:51;13.93;;;9.07;;
47481;SDS011;33219;47.410;9.730;2022-12-07T04:54:19;13.97;;;9.20;;
47481;SDS011;33219;47.410;9.730;2022-12-07T04:56:47;14.37;;;9.60;;
47481;SDS011;33219;47.410;9.730;2022-12-07T04:59:15;14.13;;;9.63;;
47481;SDS011;33219;47.410;9.730;2022-12-07T05:01:43;15.90;;;10.57;;
47481;SDS011;33219;47.410;9.730;2022-12-07T05:04:11;14.47;;;9.70;;
47481;SDS011;33219;47.410;9.730;2022-12-07T05:06:41;14.00;;;10.27;;
47481;SDS011;33219;47.410;9.730;2022-12-07T05:09:09;12.43;;;9.17;;
47481;SDS011;33219;47.410;9.730;2022-12-07T05:11:37;14.77;;;9.07;;
47481;SDS011;33219;47.410;9.730;2022-12-07T05:14:12;14.90;;;8.03;;
47481;SDS011;33219;47.410;9.730;2022-12-07T05:16:45;16.93;;;9.30;;
47481;SDS011;33219;47.410;9.730;2022-12-07T05:19:14;15.57;;;9.13;;
47481;SDS011;33219;47.410;9.730;2022-12-07T05:21:42;15.83;;;9.73;;
47481;SDS011;33219;47.410;9.730;2022-12-07T05:24:11;14.80;;;9.80;;
47481;SDS011;33219;47.410;9.730;2022-12-07T05:26:40;15.63;;;10.30;;
47481;SDS011;33219;47.410;9.730;2022-12-07T05:29:10;16.37;;;10.40;;
47481;SDS011;33219;47.410;9.730;2022-12-07T05:31:38;16.70;;;10.53;;
47481;SDS011;33219;47.410;9.730;2022-12-07T05:34:06;16.00;;;10.10;;
47481;SDS011;33219;47.410;9.730;2022-12-07T05:36:34;14.77;;;9.80;;
47481;SDS011;33219;47.410;9.730;2022-12-07T05:39:03;14.90;;;10.17;;
47481;SDS011;33219;47.410;9.730;2022-12-07T05:41:31;24.67;;;12.83;;
47481;SDS011;33219;47.410;9.730;2022-12-07T05:44:16;23.40;;;13.30;;
47481;SDS011;33219;47.410;9.730;2022-12-07T05:46:44;22.67;;;12.93;;
47481;SDS011;33219;47.410;9.730;2022-12-07T05:49:12;26.47;;;14.57;;
47481;SDS011;33219;47.410;9.730;2022-12-07T05:51:39;35.23;;;17.33;;
47481;SDS011;33219;47.410;9.730;2022-12-07T05:54:07;32.33;;;16.80;;
47481;SDS011;33219;47.410;9.730;2022-12-07T05:56:34;27.27;;;15.37;;
47481;SDS011;33219;47.410;9.730;2022-12-07T05:59:02;22.73;;;13.83;;
47481;SDS011;33219;47.410;9.730;2022-12-07T06:01:47;25.80;;;14.43;;
47481;SDS011;33219;47.410;9.730;2022-12-07T06:04:19;16.07;;;9.80;;
47481;SDS011;33219;47.410;9.730;2022-12-07T06:06:47;20.97;;;12.80;;
47481;SDS011;33219;47.410;9.730;2022-12-07T06:09:15;18.63;;;11.63;;
47481;SDS011;33219;47.410;9.730;2022-12-07T06:11:44;17.20;;;11.27;;
47481;SDS011;33219;47.410;9.730;2022-12-07T06:14:29;19.17;;;11.33;;
47481;SDS011;33219;47.410;9.730;2022-12-07T06:16:57;16.17;;;11.50;;
47481;SDS011;33219;47.410;9.730;2022-12-07T06:19:25;19.50;;;11.50;;
47481;SDS011;33219;47.410;9.730;2022-12-07T06:21:52;17.33;;;11.70;;
47481;SDS011;33219;47.410;9.730;2022-12-07T06:24:20;21.40;;;12.23;;
47481;SDS011;33219;47.410;9.730;2022-12-07T06:26:48;21.23;;;13.07;;
47481;SDS011;33219;47.410;9.730;2022-12-07T06:29:16;23.53;;;14.60;;
47481;SDS011;33219;47.410;9.730;2022-12-07T06:31:45;23.97;;;15.47;;
47481;SDS011;33219;47.410;9.730;2022-12-07T06:34:14;26.00;;;14.97;;
47481;SDS011;33219;47.410;9.730;2022-12-07T06:36:45;24.73;;;16.33;;
47481;SDS011;33219;47.410;9.730;2022-12-07T06:39:19;23.27;;;14.93;;
47481;SDS011;33219;47.410;9.730;2022-12-07T06:45:20;21.97;;;13.00;;
47481;SDS011;33219;47.410;9.730;2022-12-07T06:47:59;21.63;;;14.10;;
47481;SDS011;33219;47.410;9.730;2022-12-07T06:50:49;23.13;;;15.30;;
47481;SDS011;33219;47.410;9.730;2022-12-07T06:53:38;22.77;;;14.53;;
47481;SDS011;33219;47.410;9.730;2022-12-07T06:56:28;23.20;;;15.30;;
47481;SDS011;33219;47.410;9.730;2022-12-07T06:59:03;26.47;;;17.57;;
47481;SDS011;33219;47.410;9.730;2022-12-07T07:01:37;30.13;;;18.30;;
47481;SDS011;33219;47.410;9.730;2022-12-07T07:04:12;27.07;;;17.30;;
47481;SDS011;33219;47.410;9.730;2022-12-07T07:06:46;36.47;;;23.20;;
47481;SDS011;33219;47.410;9.730;2022-12-07T07:09:21;26.77;;;17.13;;
47481;SDS011;33219;47.410;9.730;2022-12-07T07:11:55;24.33;;;16.07;;
47481;SDS011;33219;47.410;9.730;2022-12-07T07:14:29;25.23;;;15.13;;
47481;SDS011;33219;47.410;9.730;2022-12-07T07:17:04;26.50;;;15.57;;
47481;SDS011;33219;47.410;9.730;2022-12-07T07:19:38;24.17;;;14.37;;
47481;SDS011;33219;47.410;9.730;2022-12-07T07:22:12;24.27;;;15.17;;
47481;SDS011;33219;47.410;9.730;2022-12-07T07:24:46;25.77;;;15.10;;
47481;SDS011;33219;47.410;9.730;2022-12-07T07:27:21;24.07;;;14.60;;
47481;SDS011;33219;47.410;9.730;2022-12-07T07:29:56;20.83;;;14.17;;
47481;SDS011;33219;47.410;9.730;2022-12-07T07:32:30;23.40;;;14.30;;
47481;SDS011;33219;47.410;9.730;2022-12-07T07:35:05;20.63;;;14.27;;
47481;SDS011;33219;47.410;9.730;2022-12-07T07:37:39;21.60;;;13.93;;
47481;SDS011;33219;47.410;9.730;2022-12-07T07:40:19;23.73;;;14.37;;
47481;SDS011;33219;47.410;9.730;2022-12-07T07:42:54;25.27;;;13.37;;
47481;SDS011;33219;47.410;9.730;2022-12-07T07:45:28;23.60;;;13.83;;
47481;SDS011;33219;47.410;9.730;2022-12-07T07:48:02;23.10;;;13.30;;
47481;SDS011;33219;47.410;9.730;2022-12-07T07:50:36;23.53;;;13.97;;
47481;SDS011;33219;47.410;9.730;2022-12-07T07:53:10;24.27;;;14.53;;
47481;SDS011;33219;47.410;9.730;2022-12-07T07:55:52;24.70;;;15.03;;
47481;SDS011;33219;47.410;9.730;2022-12-07T07:58:24;24.67;;;15.40;;
47481;SDS011;33219;47.410;9.730;2022-12-07T08:01:02;24.10;;;15.07;;
47481;SDS011;33219;47.410;9.730;2022-12-07T08:03:35;24.53;;;15.83;;
47481;SDS011;33219;47.410;9.730;2022-12-07T08:06:08;26.20;;;16.30;;
47481;SDS011;33219;47.410;9.730;2022-12-07T08:08:43;20.73;;;14.83;;
47481;SDS011;33219;47.410;9.730;2022-12-07T08:11:18;23.50;;;14.70;;
47481;SDS011;33219;47.410;9.730;2022-12-07T08:13:53;24.77;;;15.03;;
47481;SDS011;33219;47.410;9.730;2022-12-07T08:16:31;25.27;;;15.30;;
47481;SDS011;33219;47.410;9.730;2022-12-07T08:19:09;27.60;;;16.57;;
47481;SDS011;33219;47.410;9.730;2022-12-07T08:22:01;24.27;;;15.37;;
47481;SDS011;33219;47.410;9.730;2022-12-07T08:24:35;27.37;;;15.43;;
47481;SDS011;33219;47.410;9.730;2022-12-07T08:27:10;26.67;;;16.70;;
47481;SDS011;33219;47.410;9.730;2022-12-07T08:29:45;28.40;;;16.63;;
47481;SDS011;33219;47.410;9.730;2022-12-07T08:32:20;21.30;;;15.00;;
47481;SDS011;33219;47.410;9.730;2022-12-07T08:34:55;24.33;;;16.00;;
47481;SDS011;33219;47.410;9.730;2022-12-07T08:40:42;22.20;;;15.77;;
47481;SDS011;33219;47.410;9.730;2022-12-07T08:43:26;24.17;;;15.07;;
47481;SDS011;33219;47.410;9.730;2022-12-07T08:46:18;22.50;;;13.80;;
47481;SDS011;33219;47.410;9.730;2022-12-07T08:49:04;24.00;;;13.50;;
47481;SDS011;33219;47.410;9.730;2022-12-07T08:51:41;23.17;;;14.13;;
47481;SDS011;33219;47.410;9.730;2022-12-07T08:54:14;22.00;;;13.70;;
47481;SDS011;33219;47.410;9.730;2022-12-07T08:56:48;22.57;;;14.87;;
47481;SDS011;33219;47.410;9.730;2022-12-07T08:59:23;21.43;;;13.80;;
47481;SDS011;33219;47.410;9.730;2022-12-07T09:01:59;21.90;;;13.27;;
47481;SDS011;33219;47.410;9.730;2022-12-07T09:04:34;22.27;;;13.37;;
47481;SDS011;33219;47.410;9.730;2022-12-07T09:07:04;20.77;;;12.53;;
47481;SDS011;33219;47.410;9.730;2022-12-07T09:09:38;21.37;;;12.73;;
47481;SDS011;33219;47.410;9.730;2022-12-07T09:12:12;21.70;;;13.47;;
47481;SDS011;33219;47.410;9.730;2022-12-07T09:14:46;21.03;;;13.07;;
47481;SDS011;33219;47.410;9.730;2022-12-07T09:17:22;25.93;;;15.57;;
47481;SDS011;33219;47.410;9.730;2022-12-07T09:19:55;24.07;;;14.67;;
47481;SDS011;33219;47.410;9.730;2022-12-07T09:22:30;21.23;;;13.80;;
47481;SDS011;33219;47.410;9.730;2022-12-07T09:25:01;22.50;;;13.85;;
47481;SDS011;33219;47.410;9.730;2022-12-07T09:27:35;23.53;;;15.20;;
47481;SDS011;33219;47.410;9.730;2022-12-07T09:30:14;20.70;;;13.27;;
47481;SDS011;33219;47.410;9.730;2022-12-07T09:32:48;23.63;;;13.47;;
47481;SDS011;33219;47.410;9.730;2022-12-07T09:35:26;19.70;;;12.93;;
47481;SDS011;33219;47.410;9.730;2022-12-07T09:38:01;20.47;;;12.77;;
47481;SDS011;33219;47.410;9.730;2022-12-07T09:40:35;23.97;;;13.77;;
47481;SDS011;33219;47.410;9.730;2022-12-07T09:43:16;21.03;;;13.33;;
47481;SDS011;33219;47.410;9.730;2022-12-07T09:49:16;18.53;;;12.63;;
47481;SDS011;33219;47.410;9.730;2022-12-07T09:51:46;19.17;;;11.60;;
47481;SDS011;33219;47.410;9.730;2022-12-07T09:54:20;19.10;;;11.87;;
47481;SDS011;33219;47.410;9.730;2022-12-07T09:56:54;20.33;;;12.07;;
47481;SDS011;33219;47.410;9.730;2022-12-07T09:59:27;19.77;;;12.10;;
47481;SDS011;33219;47.410;9.730;2022-12-07T10:02:19;21.53;;;12.90;;
47481;SDS011;33219;47.410;9.730;2022-12-07T10:04:51;20.30;;;12.87;;
47481;SDS011;33219;47.410;9.730;2022-12-07T10:07:25;19.70;;;13.47;;
47481;SDS011;33219;47.410;9.730;2022-12-07T10:09:59;22.30;;;12.60;;
47481;SDS011;33219;47.410;9.730;2022-12-07T10:12:44;22.47;;;14.00;;
47481;SDS011;33219;47.410;9.730;2022-12-07T10:15:12;21.60;;;12.67;;
47481;SDS011;33219;47.410;9.730;2022-12-07T10:17:49;18.73;;;12.17;;
47481;SDS011;33219;47.410;9.730;2022-12-07T10:20:25;19.03;;;11.97;;
47481;SDS011;33219;47.410;9.730;2022-12-07T10:23:08;19.27;;;12.03;;
47481;SDS011;33219;47.410;9.730;2022-12-07T10:25:40;17.47;;;11.27;;
47481;SDS011;33219;47.410;9.730;2022-12-07T10:31:19;27.00;;;14.57;;
47481;SDS011;33219;47.410;9.730;2022-12-07T10:36:50;21.17;;;12.87;;
47481;SDS011;33219;47.410;9.730;2022-12-07T11:50:21;23.70;;;13.07;;
47481;SDS011;33219;47.410;9.730;2022-12-07T11:59:00;22.20;;;12.93;;
47481;SDS011;33219;47.410;9.730;2022-12-07T12:00:55;25.37;;;14.00;;
47481;SDS011;33219;47.410;9.730;2022-12-07T12:03:30;28.07;;;14.27;;
47481;SDS011;33219;47.410;9.730;2022-12-07T12:05:58;28.20;;;15.27;;
47481;SDS011;33219;47.410;9.730;2022-12-07T12:08:32;27.57;;;15.30;;
47481;SDS011;33219;47.410;9.730;2022-12-07T12:17:09;24.63;;;16.00;;
47481;SDS011;33219;47.410;9.730;2022-12-07T12:22:10;27.07;;;17.10;;
47481;SDS011;33219;47.410;9.730;2022-12-07T12:24:46;31.47;;;16.47;;
47481;SDS011;33219;47.410;9.730;2022-12-07T12:27:25;27.73;;;15.77;;
47481;SDS011;33219;47.410;9.730;2022-12-07T12:29:59;25.07;;;14.50;;
47481;SDS011;33219;47.410;9.730;2022-12-07T12:32:41;26.37;;;15.53;;
47481;SDS011;33219;47.410;9.730;2022-12-07T12:41:00;29.60;;;17.23;;
47481;SDS011;33219;47.410;9.730;2022-12-07T12:51:47;27.23;;;14.47;;
47481;SDS011;33219;47.410;9.730;2022-12-07T12:54:24;25.43;;;14.27;;
47481;SDS011;33219;47.410;9.730;2022-12-07T12:57:09;24.43;;;13.73;;
47481;SDS011;33219;47.410;9.730;2022-12-07T13:02:36;27.77;;;15.73;;
47481;SDS011;33219;47.410;9.730;2022-12-07T13:16:35;27.65;;;15.40;;
47481;SDS011;33219;47.410;9.730;2022-12-07T13:18:39;30.05;;;15.72;;
47481;SDS011;33219;47.410;9.730;2022-12-07T13:26:16;26.75;;;15.58;;
47481;SDS011;33219;47.410;9.730;2022-12-07T13:28:51;19.95;;;11.83;;
47481;SDS011;33219;47.410;9.730;2022-12-07T13:33:50;31.85;;;15.63;;
47481;SDS011;33219;47.410;9.730;2022-12-07T13:36:27;26.10;;;15.23;;
47481;SDS011;33219;47.410;9.730;2022-12-07T13:38:57;31.93;;;16.32;;
47481;SDS011;33219;47.410;9.730;2022-12-07T13:41:27;27.30;;;16.17;;
47481;SDS011;33219;47.410;9.730;2022-12-07T13:49:18;34.27;;;17.67;;
47481;SDS011;33219;47.410;9.730;2022-12-07T13:51:48;60.63;;;27.05;;
47481;SDS011;33219;47.410;9.730;2022-12-07T13:54:19;47.90;;;21.67;;
47481;SDS011;33219;47.410;9.730;2022-12-07T13:56:51;32.13;;;17.20;;
47481;SDS011;33219;47.410;9.730;2022-12-07T13:59:21;30.43;;;16.57;;
47481;SDS011;33219;47.410;9.730;2022-12-07T14:01:51;30.15;;;17.82;;
47481;SDS011;33219;47.410;9.730;2022-12-07T14:04:35;32.03;;;16.30;;
47481;SDS011;33219;47.410;9.730;2022-12-07T14:07:20;26.55;;;15.75;;
47481;SDS011;33219;47.410;9.730;2022-12-07T14:09:56;28.92;;;16.55;;
47481;SDS011;33219;47.410;9.730;2022-12-07T14:12:30;32.47;;;17.03;;
47481;SDS011;33219;47.410;9.730;2022-12-07T14:14:58;30.93;;;16.37;;
47481;SDS011;33219;47.410;9.730;2022-12-07T14:17:28;30.37;;;17.33;;
47481;SDS011;33219;47.410;9.730;2022-12-07T14:20:01;29.87;;;17.20;;
47481;SDS011;33219;47.410;9.730;2022-12-07T14:22:30;25.82;;;15.68;;
47481;SDS011;33219;47.410;9.730;2022-12-07T14:27:55;31.60;;;17.35;;
47481;SDS011;33219;47.410;9.730;2022-12-07T14:30:22;30.83;;;17.00;;
47481;SDS011;33219;47.410;9.730;2022-12-07T14:32:54;35.27;;;16.67;;
47481;SDS011;33219;47.410;9.730;2022-12-07T14:35:23;37.70;;;19.90;;
47481;SDS011;33219;47.410;9.730;2022-12-07T14:37:51;32.70;;;17.97;;
47481;SDS011;33219;47.410;9.730;2022-12-07T14:40:27;35.90;;;17.87;;
47481;SDS011;33219;47.410;9.730;2022-12-07T14:42:54;34.08;;;17.57;;
47481;SDS011;33219;47.410;9.730;2022-12-07T14:45:23;34.23;;;18.50;;
47481;SDS011;33219;47.410;9.730;2022-12-07T14:47:51;39.33;;;19.57;;
47481;SDS011;33219;47.410;9.730;2022-12-07T14:50:19;33.20;;;17.25;;
47481;SDS011;33219;47.410;9.730;2022-12-07T14:52:48;34.03;;;17.30;;
47481;SDS011;33219;47.410;9.730;2022-12-07T14:55:25;33.67;;;17.63;;
47481;SDS011;33219;47.410;9.730;2022-12-07T14:57:53;32.70;;;17.23;;
47481;SDS011;33219;47.410;9.730;2022-12-07T15:00:23;32.20;;;19.23;;
47481;SDS011;33219;47.410;9.730;2022-12-07T15:02:52;36.03;;;18.67;;
47481;SDS011;33219;47.410;9.730;2022-12-07T15:05:20;39.20;;;20.93;;
47481;SDS011;33219;47.410;9.730;2022-12-07T15:07:48;35.33;;;19.30;;
47481;SDS011;33219;47.410;9.730;2022-12-07T15:10:18;35.47;;;18.63;;
47481;SDS011;33219;47.410;9.730;2022-12-07T15:12:52;33.87;;;18.23;;
47481;SDS011;33219;47.410;9.730;2022-12-07T15:15:19;34.93;;;17.97;;
47481;SDS011;33219;47.410;9.730;2022-12-07T15:17:47;33.47;;;17.97;;
47481;SDS011;33219;47.410;9.730;2022-12-07T15:20:14;34.47;;;18.30;;
47481;SDS011;33219;47.410;9.730;2022-12-07T15:22:42;30.93;;;16.17;;
47481;SDS011;33219;47.410;9.730;2022-12-07T15:25:12;34.63;;;17.33;;
47481;SDS011;33219;47.410;9.730;2022-12-07T15:27:40;29.00;;;15.38;;
47481;SDS011;33219;47.410;9.730;2022-12-07T15:30:07;28.87;;;16.07;;
47481;SDS011;33219;47.410;9.730;2022-12-07T15:32:35;30.17;;;14.50;;
47481;SDS011;33219;47.410;9.730;2022-12-07T15:35:02;28.47;;;14.87;;
47481;SDS011;33219;47.410;9.730;2022-12-07T15:37:30;33.33;;;15.27;;
47481;SDS011;33219;47.410;9.730;2022-12-07T15:39:58;29.80;;;14.73;;
47481;SDS011;33219;47.410;9.730;2022-12-07T15:42:25;29.53;;;14.70;;
47481;SDS011;33219;47.410;9.730;2022-12-07T15:44:53;32.47;;;14.83;;
47481;SDS011;33219;47.410;9.730;2022-12-07T15:47:40;25.00;;;13.63;;
47481;SDS011;33219;47.410;9.730;2022-12-07T15:50:10;26.07;;;13.70;;
47481;SDS011;33219;47.410;9.730;2022-12-07T15:52:39;28.73;;;14.33;;
47481;SDS011;33219;47.410;9.730;2022-12-07T15:55:07;25.97;;;13.80;;
47481;SDS011;33219;47.410;9.730;2022-12-07T15:57:36;36.23;;;17.20;;
47481;SDS011;33219;47.410;9.730;2022-12-07T16:00:05;30.17;;;16.53;;
47481;SDS011;33219;47.410;9.730;2022-12-07T16:02:38;31.23;;;17.33;;
47481;SDS011;33219;47.410;9.730;2022-12-07T16:05:05;34.77;;;18.33;;
47481;SDS011;33219;47.410;9.730;2022-12-07T16:07:33;33.70;;;17.97;;
47481;SDS011;33219;47.410;9.730;2022-12-07T16:10:01;33.00;;;17.57;;
47481;SDS011;33219;47.410;9.730;2022-12-07T16:12:28;30.97;;;17.40;;
47481;SDS011;33219;47.410;9.730;2022-12-07T16:14:56;32.43;;;18.00;;
47481;SDS011;33219;47.410;9.730;2022-12-07T16:17:23;37.90;;;18.77;;
47481;SDS011;33219;47.410;9.730;2022-12-07T16:19:51;32.73;;;17.40;;
47481;SDS011;33219;47.410;9.730;2022-12-07T16:22:19;34.57;;;18.27;;
47481;SDS011;33219;47.410;9.730;2022-12-07T16:24:46;32.73;;;17.50;;
47481;SDS011;33219;47.410;9.730;2022-12-07T16:27:14;33.60;;;18.33;;
47481;SDS011;33219;47.410;9.730;2022-12-07T16:29:42;37.90;;;21.27;;
47481;SDS011;33219;47.410;9.730;2022-12-07T16:32:09;43.20;;;23.10;;
47481;SDS011;33219;47.410;9.730;2022-12-07T16:34:37;39.07;;;21.80;;
47481;SDS011;33219;47.410;9.730;2022-12-07T16:37:06;42.37;;;22.83;;
47481;SDS011;33219;47.410;9.730;2022-12-07T16:39:34;42.27;;;23.30;;
47481;SDS011;33219;47.410;9.730;2022-12-07T16:42:01;41.73;;;23.20;;
47481;SDS011;33219;47.410;9.730;2022-12-07T16:44:29;35.47;;;20.23;;
47481;SDS011;33219;47.410;9.730;2022-12-07T16:46:57;41.67;;;23.57;;
47481;SDS011;33219;47.410;9.730;2022-12-07T16:49:26;40.50;;;22.23;;
47481;SDS011;33219;47.410;9.730;2022-12-07T16:51:54;39.67;;;20.90;;
47481;SDS011;33219;47.410;9.730;2022-12-07T16:54:21;37.87;;;21.30;;
47481;SDS011;33219;47.410;9.730;2022-12-07T16:56:49;34.27;;;18.30;;
47481;SDS011;33219;47.410;9.730;2022-12-07T16:59:16;107.67;;;59.77;;
47481;SDS011;33219;47.410;9.730;2022-12-07T17:01:44;46.73;;;22.90;;
47481;SDS011;33219;47.410;9.730;2022-12-07T17:04:12;39.67;;;20.73;;
47481;SDS011;33219;47.410;9.730;2022-12-07T17:06:39;36.67;;;19.27;;
47481;SDS011;33219;47.410;9.730;2022-12-07T17:09:07;39.40;;;19.83;;
47481;SDS011;33219;47.410;9.730;2022-12-07T17:11:35;35.37;;;20.07;;
47481;SDS011;33219;47.410;9.730;2022-12-07T17:14:03;34.97;;;19.93;;
47481;SDS011;33219;47.410;9.730;2022-12-07T17:16:49;34.40;;;18.27;;
47481;SDS011;33219;47.410;9.730;2022-12-07T17:19:16;32.37;;;18.63;;
47481;SDS011;33219;47.410;9.730;2022-12-07T17:21:44;35.03;;;18.80;;
47481;SDS011;33219;47.410;9.730;2022-12-07T17:24:13;44.03;;;20.20;;
47481;SDS011;33219;47.410;9.730;2022-12-07T17:26:42;45.80;;;21.70;;
47481;SDS011;33219;47.410;9.730;2022-12-07T17:29:12;42.10;;;23.10;;
47481;SDS011;33219;47.410;9.730;2022-12-07T17:31:40;43.77;;;22.17;;
47481;SDS011;33219;47.410;9.730;2022-12-07T17:34:12;41.33;;;21.93;;
47481;SDS011;33219;47.410;9.730;2022-12-07T17:36:41;45.10;;;22.60;;